createdAt,value
2023-04-29T00:02:31.996Z,0.60
2023-04-29T00:07:54.945Z,0.33
2023-04-29T00:10:22.044Z,0.43
2023-04-29T00:12:55.112Z,0.40
2023-04-29T00:18:12.203Z,0.40
2023-04-29T00:20:39.623Z,0.43
2023-04-29T00:23:07.725Z,0.30
2023-04-29T00:25:35.285Z,0.43
2023-04-29T00:30:56.401Z,0.63
2023-04-29T00:33:27.257Z,0.40
2023-04-29T00:35:53.929Z,0.65
2023-04-29T00:41:12.191Z,0.40
2023-04-29T00:43:38.866Z,0.45
2023-04-29T00:46:05.565Z,0.33
2023-04-29T00:48:33.948Z,0.40
2023-04-29T00:51:00.567Z,0.30
2023-04-29T00:53:27.376Z,0.45
2023-04-29T00:55:54.794Z,0.57
2023-04-29T00:58:22.706Z,0.40
2023-04-29T01:00:49.986Z,0.40
2023-04-29T01:03:16.939Z,0.52
2023-04-29T01:05:48.071Z,0.35
2023-04-29T01:08:52.719Z,0.50
2023-04-29T01:11:23.836Z,0.50
2023-04-29T01:13:51.725Z,0.30
2023-04-29T01:16:52.987Z,0.30
2023-04-29T01:19:47.956Z,0.50
2023-04-29T01:22:15.443Z,0.40
2023-04-29T01:24:42.131Z,0.60
2023-04-29T01:27:36.826Z,0.40
2023-04-29T01:30:21.287Z,0.35
2023-04-29T01:33:02.349Z,0.50
2023-04-29T01:35:50.060Z,0.40
2023-04-29T01:38:31.078Z,0.32
2023-04-29T01:41:12.634Z,0.60
2023-04-29T01:43:40.201Z,0.47
2023-04-29T01:46:11.735Z,0.50
2023-04-29T01:48:39.315Z,0.50
2023-04-29T01:51:07.144Z,0.50
2023-04-29T01:53:33.877Z,0.70
2023-04-29T01:56:00.577Z,0.40
2023-04-29T01:58:30.220Z,0.63
2023-04-29T02:00:56.942Z,0.73
2023-04-29T02:03:23.921Z,0.40
2023-04-29T02:05:50.710Z,0.50
2023-04-29T02:08:18.260Z,0.50
2023-04-29T02:10:59.083Z,0.47
2023-04-29T02:13:26.837Z,0.63
2023-04-29T02:15:53.573Z,0.60
2023-04-29T02:18:20.728Z,0.30
2023-04-29T02:20:47.521Z,0.60
2023-04-29T02:23:14.145Z,0.50
2023-04-29T02:25:40.799Z,0.60
2023-04-29T02:28:07.527Z,0.43
2023-04-29T02:30:41.432Z,0.50
2023-04-29T02:33:08.826Z,0.32
2023-04-29T02:35:35.946Z,0.43
2023-04-29T02:38:08.842Z,0.45
2023-04-29T02:40:40.655Z,0.50
2023-04-29T02:43:07.657Z,0.50
2023-04-29T02:45:34.393Z,0.20
2023-04-29T02:48:01.176Z,0.45
2023-04-29T02:50:28.788Z,0.40
2023-04-29T02:52:55.762Z,0.32
2023-04-29T02:55:22.587Z,0.40
2023-04-29T02:57:49.303Z,0.50
2023-04-29T03:00:16.117Z,0.20
2023-04-29T03:02:43.163Z,0.30
2023-04-29T03:05:13.218Z,0.40
2023-04-29T03:07:39.860Z,0.45
2023-04-29T03:10:09.938Z,0.35
2023-04-29T03:12:37.036Z,0.57
2023-04-29T03:15:08.023Z,0.47
2023-04-29T03:17:34.833Z,0.55
2023-04-29T03:20:01.732Z,0.35
2023-04-29T03:22:28.553Z,0.40
2023-04-29T03:24:55.324Z,0.35
2023-04-29T03:27:22.193Z,0.40
2023-04-29T03:29:52.041Z,0.52
2023-04-29T03:32:18.884Z,0.50
2023-04-29T03:34:45.621Z,0.20
2023-04-29T03:37:12.743Z,0.22
2023-04-29T03:39:39.389Z,0.40
2023-04-29T03:42:08.535Z,0.20
2023-04-29T03:44:35.229Z,0.38
2023-04-29T03:47:04.993Z,0.20
2023-04-29T03:49:31.653Z,0.15
2023-04-29T03:51:59.446Z,0.20
2023-04-29T03:54:26.122Z,0.30
2023-04-29T03:56:52.790Z,0.38
2023-04-29T03:59:19.594Z,0.23
2023-04-29T04:01:46.252Z,0.30
2023-04-29T04:04:13.417Z,0.28
2023-04-29T04:06:40.118Z,0.15
2023-04-29T04:09:07.696Z,0.52
2023-04-29T04:11:34.358Z,0.50
2023-04-29T04:14:01.290Z,0.17
2023-04-29T04:16:28.045Z,0.40
2023-04-29T04:18:54.736Z,0.30
2023-04-29T04:21:21.356Z,0.50
2023-04-29T04:23:48.818Z,0.30
2023-04-29T04:26:15.558Z,0.33
2023-04-29T04:28:42.276Z,0.57
2023-04-29T04:31:09.004Z,0.30
2023-04-29T04:33:36.328Z,0.70
2023-04-29T04:36:03.159Z,0.50
2023-04-29T04:38:47.956Z,1.15
2023-04-29T04:41:14.670Z,0.82
2023-04-29T04:43:41.390Z,1.20
2023-04-29T04:46:12.839Z,1.20
2023-04-29T04:48:39.576Z,1.05
2023-04-29T04:51:13.413Z,1.13
2023-04-29T04:53:40.985Z,1.73
2023-04-29T04:56:08.343Z,1.57
2023-04-29T04:58:34.959Z,1.50
2023-04-29T05:01:02.057Z,1.45
2023-04-29T05:03:29.073Z,1.23
2023-04-29T05:05:57.341Z,2.00
2023-04-29T05:08:24.363Z,1.27
2023-04-29T05:10:54.555Z,1.90
2023-04-29T05:13:21.411Z,1.60
2023-04-29T05:15:48.131Z,1.52
2023-04-29T05:18:14.842Z,1.92
2023-04-29T05:20:44.576Z,1.83
2023-04-29T05:23:11.361Z,1.42
2023-04-29T05:25:38.253Z,1.90
2023-04-29T05:28:05.575Z,1.58
2023-04-29T05:30:32.391Z,1.50
2023-04-29T05:32:59.190Z,1.38
2023-04-29T05:35:26.494Z,1.23
2023-04-29T05:37:54.614Z,1.17
2023-04-29T05:40:24.402Z,1.83
2023-04-29T05:42:51.559Z,1.75
2023-04-29T05:45:18.272Z,1.70
2023-04-29T05:47:45.046Z,1.40
2023-04-29T05:50:11.906Z,2.38
2023-04-29T05:52:41.969Z,1.45
2023-04-29T05:55:09.054Z,1.20
2023-04-29T05:57:35.760Z,2.05
2023-04-29T06:00:04.174Z,1.58
2023-04-29T06:02:31.104Z,1.70
2023-04-29T06:04:58.137Z,1.58
2023-04-29T06:07:26.608Z,2.13
2023-04-29T06:09:55.128Z,1.80
2023-04-29T06:12:21.986Z,1.42
2023-04-29T06:14:49.034Z,1.90
2023-04-29T06:17:15.928Z,1.60
2023-04-29T06:19:42.545Z,1.45
2023-04-29T06:22:11.413Z,1.50
2023-04-29T06:24:38.313Z,1.10
2023-04-29T06:27:05.274Z,1.00
2023-04-29T06:29:31.909Z,1.35
2023-04-29T06:31:58.541Z,1.42
2023-04-29T06:34:25.236Z,1.20
2023-04-29T06:36:51.968Z,1.15
2023-04-29T06:39:18.869Z,1.35
2023-04-29T06:41:47.144Z,1.63
2023-04-29T06:44:13.863Z,1.37
2023-04-29T06:46:41.985Z,0.68
2023-04-29T06:49:08.633Z,0.68
2023-04-29T06:51:37.393Z,0.93
2023-04-29T06:54:04.586Z,0.90
2023-04-29T06:56:31.563Z,0.93
2023-04-29T06:58:58.209Z,0.85
2023-04-29T07:01:24.931Z,0.65
2023-04-29T07:03:54.262Z,1.05
2023-04-29T07:06:21.198Z,0.60
2023-04-29T07:08:47.863Z,0.90
2023-04-29T07:11:14.504Z,0.75
2023-04-29T07:13:41.334Z,0.98
2023-04-29T07:16:17.014Z,1.20
2023-04-29T07:18:44.108Z,1.20
2023-04-29T07:21:10.766Z,1.00
2023-04-29T07:23:37.464Z,0.95
2023-04-29T07:26:15.834Z,0.68
2023-04-29T07:28:43.478Z,0.67
2023-04-29T07:31:11.862Z,1.33
2023-04-29T07:33:38.752Z,1.67
2023-04-29T07:36:07.277Z,1.02
2023-04-29T07:38:34.672Z,1.10
2023-04-29T07:41:01.547Z,0.82
2023-04-29T07:43:30.245Z,0.85
2023-04-29T07:45:56.962Z,0.80
2023-04-29T07:48:23.724Z,1.45
2023-04-29T07:50:50.720Z,1.15
2023-04-29T07:53:18.136Z,1.00
2023-04-29T07:55:47.951Z,1.38
2023-04-29T07:58:14.655Z,1.20
2023-04-29T08:00:41.352Z,1.35
2023-04-29T08:03:09.210Z,1.27
2023-04-29T08:05:36.614Z,0.90
2023-04-29T08:08:03.520Z,1.13
2023-04-29T08:10:32.251Z,1.70
2023-04-29T08:12:59.149Z,1.30
2023-04-29T08:15:26.267Z,1.00
2023-04-29T08:17:54.168Z,1.38
2023-04-29T08:20:20.925Z,1.02
2023-04-29T08:22:47.954Z,0.98
2023-04-29T08:25:14.652Z,1.40
2023-04-29T08:27:43.558Z,1.20
2023-04-29T08:30:10.475Z,1.02
2023-04-29T08:32:37.248Z,1.10
2023-04-29T08:35:04.218Z,1.63
2023-04-29T08:37:30.836Z,1.25
2023-04-29T08:40:00.487Z,0.77
2023-04-29T08:42:39.131Z,1.20
2023-04-29T08:45:06.471Z,1.30
2023-04-29T08:47:34.777Z,1.37
2023-04-29T08:50:05.938Z,1.20
2023-04-29T08:52:34.804Z,1.10
2023-04-29T08:55:02.927Z,1.40
2023-04-29T08:57:31.168Z,1.45
2023-04-29T09:00:01.170Z,1.20
2023-04-29T09:02:28.938Z,1.27
2023-04-29T09:05:04.757Z,1.63
2023-04-29T09:07:36.219Z,1.60
2023-04-29T09:10:05.027Z,0.90
2023-04-29T09:12:34.645Z,0.90
2023-04-29T09:15:01.303Z,1.30
2023-04-29T09:17:43.126Z,1.48
2023-04-29T09:20:22.300Z,0.88
2023-04-29T09:22:51.021Z,1.25
2023-04-29T09:25:17.802Z,1.00
2023-04-29T09:27:47.765Z,1.02
2023-04-29T09:30:16.460Z,1.17
2023-04-29T09:32:45.083Z,1.10
2023-04-29T09:35:28.293Z,0.70
2023-04-29T09:38:12.155Z,0.80
2023-04-29T09:40:54.381Z,1.10
2023-04-29T09:43:29.189Z,1.23
2023-04-29T09:46:01.005Z,0.60
2023-04-29T09:48:33.875Z,0.50
2023-04-29T09:51:03.110Z,0.60
2023-04-29T09:53:33.427Z,1.25
2023-04-29T09:56:02.504Z,1.40
2023-04-29T09:58:38.461Z,1.05
2023-04-29T10:01:05.821Z,1.50
2023-04-29T10:03:38.096Z,1.40
2023-04-29T10:06:07.018Z,1.23
2023-04-29T10:08:34.600Z,1.47
2023-04-29T10:11:03.379Z,1.10
2023-04-29T10:13:30.586Z,1.23
2023-04-29T10:16:20.580Z,1.00
2023-04-29T10:18:56.014Z,1.33
2023-04-29T10:21:32.101Z,1.00
2023-04-29T10:23:59.929Z,0.97
2023-04-29T10:26:29.087Z,1.00
2023-04-29T10:29:00.250Z,0.90
2023-04-29T10:31:30.354Z,1.05
2023-04-29T10:34:02.657Z,1.02
2023-04-29T10:36:31.341Z,1.00
2023-04-29T10:39:00.958Z,0.77
2023-04-29T10:41:33.591Z,0.57
2023-04-29T10:44:04.152Z,0.80
2023-04-29T10:46:37.136Z,0.60
2023-04-29T10:49:06.385Z,1.08
2023-04-29T10:51:41.835Z,0.43
2023-04-29T10:54:25.528Z,1.08
2023-04-29T10:56:54.211Z,0.63
2023-04-29T10:59:42.733Z,0.85
2023-04-29T11:02:13.475Z,0.83
2023-04-29T11:05:10.796Z,0.50
2023-04-29T11:07:41.587Z,0.88
2023-04-29T11:10:16.924Z,0.75
2023-04-29T11:12:43.593Z,0.43
2023-04-29T11:15:11.660Z,0.80
2023-04-29T11:17:38.718Z,0.85
2023-04-29T11:20:12.529Z,0.80
2023-04-29T11:22:40.040Z,0.75
2023-04-29T11:25:07.512Z,0.60
2023-04-29T11:27:39.869Z,0.60
2023-04-29T11:30:12.292Z,0.65
2023-04-29T11:32:40.871Z,0.50
2023-04-29T11:35:11.062Z,0.53
2023-04-29T11:37:40.275Z,0.57
2023-04-29T11:40:08.050Z,0.90
2023-04-29T11:42:37.510Z,0.70
2023-04-29T11:45:06.261Z,0.82
2023-04-29T11:47:36.823Z,0.60
2023-04-29T11:50:08.874Z,0.70
2023-04-29T11:52:37.831Z,0.77
2023-04-29T11:55:05.865Z,0.40
2023-04-29T11:57:32.996Z,0.73
2023-04-29T12:00:05.702Z,0.50
2023-04-29T12:02:34.944Z,0.50
2023-04-29T12:05:07.651Z,0.60
2023-04-29T12:07:36.319Z,0.40
2023-04-29T12:10:03.285Z,0.43
2023-04-29T12:12:34.932Z,0.57
2023-04-29T12:15:03.586Z,0.50
2023-04-29T12:17:30.464Z,0.88
2023-04-29T12:19:57.693Z,0.50
2023-04-29T12:22:35.027Z,0.45
2023-04-29T12:25:05.929Z,0.50
2023-04-29T12:33:29.150Z,0.60
2023-04-29T12:35:58.281Z,0.52
2023-04-29T12:38:29.767Z,0.65
2023-04-29T12:40:59.488Z,0.68
2023-04-29T12:43:35.501Z,0.60
2023-04-29T12:46:09.455Z,0.52
2023-04-29T12:48:41.706Z,0.43
2023-04-29T12:51:12.807Z,0.60
2023-04-29T12:53:42.668Z,0.77
2023-04-29T12:56:14.697Z,0.70
2023-04-29T12:58:43.843Z,0.60
2023-04-29T13:01:11.749Z,0.60
2023-04-29T13:03:38.767Z,0.83
2023-04-29T13:06:06.305Z,0.60
2023-04-29T13:08:42.211Z,0.80
2023-04-29T13:11:08.923Z,0.68
2023-04-29T13:13:35.535Z,0.90
2023-04-29T13:16:02.437Z,0.70
2023-04-29T13:18:29.166Z,0.70
2023-04-29T13:20:57.922Z,0.52
2023-04-29T13:23:24.608Z,0.77
2023-04-29T13:25:55.835Z,0.98
2023-04-29T13:28:22.654Z,0.70
2023-04-29T13:30:50.864Z,0.55
2023-04-29T13:33:18.540Z,0.70
2023-04-29T13:35:46.980Z,0.65
2023-04-29T13:38:14.266Z,0.70
2023-04-29T13:40:46.877Z,0.85
2023-04-29T13:43:20.906Z,0.50
2023-04-29T13:45:55.958Z,0.80
2023-04-29T13:48:45.283Z,0.57
2023-04-29T13:56:55.036Z,0.50
2023-04-29T13:59:41.487Z,0.40
2023-04-29T14:04:32.779Z,0.55
2023-04-29T14:06:59.616Z,0.93
2023-04-29T14:09:28.573Z,0.82
2023-04-29T14:12:01.199Z,0.85
2023-04-29T14:14:27.843Z,0.60
2023-04-29T14:16:55.257Z,0.70
2023-04-29T14:19:21.914Z,0.50
2023-04-29T14:21:48.547Z,0.50
2023-04-29T14:24:17.724Z,0.70
2023-04-29T14:26:44.381Z,0.80
2023-04-29T14:29:11.349Z,0.90
2023-04-29T14:31:41.022Z,0.70
2023-04-29T14:34:07.664Z,0.80
2023-04-29T14:36:34.295Z,0.73
2023-04-29T14:39:04.266Z,0.68
2023-04-29T14:41:31.114Z,0.60
2023-04-29T14:43:57.801Z,0.90
2023-04-29T14:46:27.341Z,1.17
2023-04-29T14:48:54.081Z,1.07
2023-04-29T14:51:23.940Z,0.90
2023-04-29T14:53:55.320Z,0.90
2023-04-29T14:56:25.155Z,0.80
2023-04-29T14:58:51.868Z,0.70
2023-04-29T15:01:22.035Z,0.70
2023-04-29T15:03:48.964Z,0.88
2023-04-29T15:06:16.717Z,0.90
2023-04-29T15:08:43.466Z,0.75
2023-04-29T15:11:10.154Z,0.93
2023-04-29T15:13:38.430Z,0.60
2023-04-29T15:16:07.335Z,0.40
2023-04-29T15:18:34.049Z,0.68
2023-04-29T15:21:05.290Z,0.60
2023-04-29T15:23:37.509Z,0.60
2023-04-29T15:26:04.382Z,0.57
2023-04-29T15:28:32.931Z,0.63
2023-04-29T15:31:01.787Z,0.50
2023-04-29T15:33:30.956Z,0.50
2023-04-29T15:36:00.338Z,0.40
2023-04-29T15:38:27.086Z,0.55
2023-04-29T15:41:00.353Z,0.65
2023-04-29T15:43:28.078Z,0.40
2023-04-29T15:45:54.980Z,0.43
2023-04-29T15:48:22.324Z,0.60
2023-04-29T15:50:52.773Z,0.63
2023-04-29T15:53:19.519Z,0.82
2023-04-29T15:55:46.703Z,1.00
2023-04-29T15:58:13.424Z,1.33
2023-04-29T16:00:48.487Z,1.27
2023-04-29T16:03:15.368Z,0.95
2023-04-29T16:05:45.311Z,0.93
2023-04-29T16:08:12.085Z,1.02
2023-04-29T16:10:38.712Z,1.30
2023-04-29T16:13:05.506Z,0.95
2023-04-29T16:15:32.550Z,1.35
2023-04-29T16:18:00.544Z,1.23
2023-04-29T16:20:27.259Z,1.30
2023-04-29T16:22:58.541Z,1.25
2023-04-29T16:25:25.278Z,1.70
2023-04-29T16:27:53.104Z,1.20
2023-04-29T16:30:19.773Z,0.70
2023-04-29T16:32:54.603Z,1.30
2023-04-29T16:35:28.188Z,1.38
2023-04-29T16:37:57.922Z,0.60
2023-04-29T16:40:24.699Z,0.90
2023-04-29T16:42:53.250Z,1.15
2023-04-29T16:45:22.937Z,1.30
2023-04-29T16:47:50.634Z,0.90
2023-04-29T16:50:17.849Z,1.08
2023-04-29T16:52:44.658Z,1.20
2023-04-29T16:55:15.217Z,1.17
2023-04-29T16:57:43.664Z,0.82
2023-04-29T17:03:04.468Z,1.10
2023-04-29T17:05:34.810Z,0.82
2023-04-29T17:08:03.362Z,1.00
2023-04-29T17:10:31.597Z,1.08
2023-04-29T17:12:58.320Z,0.90
2023-04-29T17:15:24.932Z,1.05
2023-04-29T17:17:51.750Z,1.00
2023-04-29T17:20:18.560Z,0.90
2023-04-29T17:22:45.224Z,0.88
2023-04-29T17:25:14.746Z,0.85
2023-04-29T17:27:45.082Z,0.90
2023-04-29T17:30:12.509Z,0.65
2023-04-29T17:32:39.528Z,0.73
2023-04-29T17:35:08.499Z,0.60
2023-04-29T17:37:39.753Z,0.70
2023-04-29T17:40:07.361Z,0.68
2023-04-29T17:42:34.085Z,0.67
2023-04-29T17:45:00.771Z,0.50
2023-04-29T17:47:28.124Z,0.80
2023-04-29T17:49:56.292Z,0.50
2023-04-29T17:52:24.151Z,0.80
2023-04-29T17:54:50.819Z,0.80
2023-04-29T17:57:20.228Z,0.80
2023-04-29T17:59:50.615Z,0.45
2023-04-29T18:02:17.212Z,0.80
2023-04-29T18:04:47.319Z,0.55
2023-04-29T18:07:14.245Z,0.57
2023-04-29T18:09:44.723Z,0.70
2023-04-29T18:12:11.325Z,0.88
2023-04-29T18:23:16.462Z,1.00
2023-04-29T18:25:46.266Z,0.70
2023-04-29T18:28:23.556Z,0.95
2023-04-29T18:30:52.237Z,0.80
2023-04-29T18:33:19.024Z,1.10
2023-04-29T18:35:45.991Z,0.80
2023-04-29T18:38:22.861Z,1.13
2023-04-29T18:40:49.645Z,0.77
2023-04-29T18:43:19.047Z,0.88
2023-04-29T18:45:45.811Z,0.70
2023-04-29T18:48:13.002Z,0.88
2023-04-29T18:50:43.037Z,1.08
2023-04-29T18:53:09.763Z,0.80
2023-04-29T18:55:36.554Z,0.80
2023-04-29T18:58:04.119Z,0.93
2023-04-29T19:00:34.312Z,1.00
2023-04-29T19:03:01.038Z,1.20
2023-04-29T19:05:27.863Z,1.13
2023-04-29T19:07:56.410Z,0.70
2023-04-29T19:10:27.405Z,1.20
2023-04-29T19:12:54.091Z,0.90
2023-04-29T19:15:20.736Z,0.70
2023-04-29T19:17:47.409Z,0.90
2023-04-29T19:20:14.750Z,0.93
2023-04-29T19:22:41.729Z,0.88
2023-04-29T19:25:09.993Z,0.73
2023-04-29T19:27:40.390Z,0.93
2023-04-29T19:30:09.217Z,0.95
2023-04-29T19:32:37.810Z,0.93
2023-04-29T19:35:05.512Z,1.08
2023-04-29T19:37:32.138Z,1.08
2023-04-29T19:39:59.872Z,1.38
2023-04-29T19:42:27.099Z,1.00
2023-04-29T19:44:53.930Z,1.00
2023-04-29T19:47:24.705Z,0.88
2023-04-29T19:49:51.828Z,1.13
2023-04-29T19:52:19.828Z,1.08
2023-04-29T19:54:47.631Z,0.95
2023-04-29T19:57:14.392Z,1.13
2023-04-29T19:59:41.968Z,1.50
2023-04-29T20:02:09.838Z,1.10
2023-04-29T20:04:40.322Z,1.15
2023-04-29T20:07:07.969Z,1.40
2023-04-29T20:09:41.138Z,1.40
2023-04-29T20:12:07.802Z,1.70
2023-04-29T20:14:34.542Z,1.13
2023-04-29T20:17:02.213Z,1.25
2023-04-29T20:22:19.877Z,1.10
2023-04-29T20:24:48.496Z,1.20
2023-04-29T20:27:17.358Z,1.35
2023-04-29T20:29:44.115Z,1.27
2023-04-29T20:32:13.359Z,1.63
2023-04-29T20:34:40.085Z,1.48
2023-04-29T20:37:11.810Z,1.48
2023-04-29T20:39:42.849Z,1.13
2023-04-29T20:42:09.489Z,1.27
2023-04-29T20:44:39.982Z,1.05
2023-04-29T20:47:07.269Z,1.67
2023-04-29T20:49:37.259Z,1.40
2023-04-29T20:52:06.260Z,0.95
2023-04-29T20:54:35.982Z,1.40
2023-04-29T20:57:05.478Z,1.17
2023-04-29T20:59:33.417Z,1.40
2023-04-29T21:02:00.283Z,1.55
2023-04-29T21:07:18.388Z,1.50
2023-04-29T21:09:45.357Z,1.50
2023-04-29T21:12:14.803Z,1.20
2023-04-29T21:14:42.646Z,1.23
2023-04-29T21:17:09.640Z,1.20
2023-04-29T21:19:37.514Z,1.67
2023-04-29T21:22:04.616Z,1.73
2023-04-29T21:24:31.511Z,1.50
2023-04-29T21:26:59.935Z,1.80
2023-04-29T21:29:26.631Z,1.08
2023-04-29T21:31:54.590Z,1.65
2023-04-29T21:34:24.233Z,1.50
2023-04-29T21:36:50.914Z,1.42
2023-04-29T21:42:09.632Z,1.52
2023-04-29T21:44:37.709Z,1.73
2023-04-29T21:47:04.606Z,1.98
2023-04-29T21:52:25.522Z,1.50
2023-04-29T21:54:52.231Z,1.40
2023-04-29T21:57:21.993Z,2.08
2023-04-29T21:59:53.251Z,1.38
2023-04-29T22:02:25.207Z,1.55
2023-04-29T22:04:57.020Z,1.40
2023-04-29T22:07:26.129Z,1.30
2023-04-29T22:09:53.931Z,1.53
2023-04-29T22:12:23.176Z,1.98
2023-04-29T22:14:50.355Z,1.58
2023-04-29T22:17:19.215Z,1.67
2023-04-29T22:25:28.734Z,1.70
2023-04-29T22:27:56.004Z,1.52
2023-04-29T22:30:26.202Z,1.30
2023-04-29T22:32:52.907Z,1.30
2023-04-29T22:35:22.207Z,1.70
2023-04-29T22:37:49.768Z,1.70
2023-04-29T22:40:16.438Z,1.70
2023-04-29T22:42:48.731Z,2.00
2023-04-29T22:45:15.578Z,1.73
2023-04-29T22:47:49.350Z,2.17
2023-04-29T22:50:18.221Z,1.73
2023-04-29T22:52:47.968Z,1.80
2023-04-29T22:55:14.708Z,2.30
2023-04-29T22:57:41.359Z,1.60
2023-04-29T23:00:08.592Z,1.42
2023-04-29T23:02:37.973Z,1.90
2023-04-29T23:05:05.922Z,1.52
2023-04-29T23:07:37.989Z,2.38
2023-04-29T23:10:05.202Z,2.17
2023-04-29T23:12:31.868Z,1.50
2023-04-29T23:14:58.580Z,1.50
2023-04-29T23:17:25.461Z,1.50
2023-04-29T23:19:54.642Z,1.75
2023-04-29T23:22:21.558Z,1.58
2023-04-29T23:24:48.725Z,1.57
2023-04-29T23:27:18.938Z,1.58
2023-04-29T23:29:45.642Z,2.00
2023-04-29T23:32:12.308Z,1.70
2023-04-29T23:34:42.525Z,2.53
2023-04-29T23:37:13.787Z,1.85
2023-04-29T23:39:40.377Z,2.10
2023-04-29T23:42:12.864Z,1.70
2023-04-29T23:44:42.548Z,2.00
2023-04-29T23:47:09.595Z,2.10
2023-04-29T23:49:36.220Z,1.65
2023-04-29T23:52:08.474Z,1.40
2023-04-29T23:54:35.126Z,1.67
2023-04-29T23:57:03.527Z,1.95
2023-04-29T23:59:30.155Z,1.63
